Time;durP1;ratioP1;P1;durP2;ratioP2;P2;SDS_P1;SDS_P2;PMS_P1;PMS_P2;Temp;Humidity;BMP_temperature;BMP_pressure;BME280_temperature;BME280_humidity;BME280_pressure;Samples;Min_cycle;Max_cycle;Signal;HPM_P1;HPM_P2
2023/05/19 00:01:18;;;;;;;6.23;2.73;;;9.20;31.70;;;;;;4975497;28;20520;-51
2023/05/19 00:03:52;;;;;;;3.63;1.87;;;9.20;30.80;;;;;;4974476;28;20505;-51
2023/05/19 00:06:23;;;;;;;4.83;2.30;;;9.10;28.70;;;;;;4980918;28;20457;-51
2023/05/19 00:08:50;;;;;;;8.93;2.77;;;9.10;25.10;;;;;;4976354;28;20450;-50
2023/05/19 00:11:18;;;;;;;4.70;2.60;;;9.10;21.10;;;;;;4976414;28;20445;-50
2023/05/19 00:13:48;;;;;;;10.10;2.90;;;9.10;72.50;;;;;;4976654;28;20493;-51
2023/05/19 00:16:15;;;;;;;5.13;2.63;;;9.00;96.00;;;;;;4976280;28;20474;-51
2023/05/19 00:18:42;;;;;;;6.87;2.80;;;9.00;99.90;;;;;;4975726;28;20480;-50
2023/05/19 00:21:09;;;;;;;5.80;2.50;;;8.90;99.90;;;;;;4980019;28;20489;-51
2023/05/19 00:23:35;;;;;;;13.77;2.43;;;8.90;99.90;;;;;;4982680;28;20499;-50
2023/05/19 00:26:02;;;;;;;4.50;2.30;;;8.90;99.90;;;;;;4987269;28;20488;-51
2023/05/19 00:28:29;;;;;;;5.73;2.83;;;8.90;99.90;;;;;;4986909;28;20508;-50
2023/05/19 00:30:56;;;;;;;8.13;2.97;;;8.80;99.90;;;;;;4975419;28;20905;-51
2023/05/19 00:33:23;;;;;;;8.00;3.00;;;8.80;99.90;;;;;;4980885;28;20499;-50
2023/05/19 00:35:49;;;;;;;8.13;2.60;;;8.80;99.90;;;;;;4985039;28;20496;-51
2023/05/19 00:38:16;;;;;;;3.70;2.00;;;8.70;99.90;;;;;;4974159;28;20457;-51
2023/05/19 00:40:42;;;;;;;9.90;2.27;;;8.70;99.90;;;;;;4976096;28;20485;-51
2023/05/19 00:43:09;;;;;;;5.60;2.73;;;8.60;99.90;;;;;;4973975;28;20504;-51
2023/05/19 00:45:37;;;;;;;8.00;2.10;;;8.60;99.90;;;;;;4973215;28;20925;-50
2023/05/19 00:48:03;;;;;;;5.43;2.43;;;8.60;99.90;;;;;;4975640;28;20963;-51
2023/05/19 00:50:30;;;;;;;3.60;2.10;;;8.60;99.90;;;;;;4975808;28;20454;-50
2023/05/19 00:52:57;;;;;;;4.60;2.40;;;8.50;99.90;;;;;;4977207;28;20566;-51
2023/05/19 00:55:27;;;;;;;4.97;2.03;;;8.40;99.90;;;;;;4985085;28;20527;-51
2023/05/19 00:57:55;;;;;;;5.63;2.23;;;8.40;99.90;;;;;;4973844;28;20585;-51
2023/05/19 01:00:22;;;;;;;4.50;2.60;;;8.30;99.90;;;;;;4975607;28;20480;-50
2023/05/19 01:02:50;;;;;;;7.47;2.43;;;8.30;99.90;;;;;;4975855;28;20496;-51
2023/05/19 01:05:17;;;;;;;5.13;2.60;;;8.20;99.90;;;;;;4986479;28;20488;-51
2023/05/19 01:07:45;;;;;;;5.00;2.00;;;8.20;99.90;;;;;;4987490;28;20489;-51
2023/05/19 01:10:12;;;;;;;4.70;2.40;;;8.10;99.90;;;;;;4974438;28;20515;-51
2023/05/19 01:12:40;;;;;;;9.20;3.27;;;8.10;99.90;;;;;;4971458;28;21038;-51
2023/05/19 01:15:08;;;;;;;8.33;2.50;;;8.00;99.90;;;;;;4971227;28;20560;-51
2023/05/19 01:17:45;;;;;;;7.97;2.10;;;8.00;95.30;;;;;;4975019;28;20445;-50
2023/05/19 01:20:20;;;;;;;5.17;2.20;;;8.00;70.70;;;;;;4955851;28;20446;-50
2023/05/19 01:23:15;;;;;;;8.40;2.77;;;8.00;70.70;;;;;;4970629;28;20564;-50
2023/05/19 01:26:18;;;;;;;4.90;2.37;;;7.90;66.00;;;;;;4985856;28;21021;-50
2023/05/19 01:29:19;;;;;;;4.60;1.83;;;7.90;66.00;;;;;;4972484;28;20525;-51
2023/05/19 01:31:49;;;;;;;5.67;2.10;;;7.80;62.20;;;;;;4959714;28;20986;-51
2023/05/19 01:34:16;;;;;;;6.20;2.07;;;7.80;62.40;;;;;;4979008;28;20488;-51
2023/05/19 01:36:47;;;;;;;5.53;2.50;;;7.70;62.50;;;;;;4974119;28;20527;-51
2023/05/19 01:39:14;;;;;;;4.83;2.83;;;7.70;58.30;;;;;;4972798;28;20875;-51
2023/05/19 01:41:42;;;;;;;3.10;2.07;;;7.70;52.10;;;;;;4971994;28;20501;-51
2023/05/19 01:44:09;;;;;;;4.00;2.10;;;7.60;50.90;;;;;;4971966;28;20464;-51
2023/05/19 01:46:37;;;;;;;7.80;2.50;;;7.60;49.30;;;;;;4973062;28;20497;-50
2023/05/19 01:49:06;;;;;;;5.80;2.47;;;7.60;47.70;;;;;;4968139;28;20551;-51
2023/05/19 01:51:32;;;;;;;3.30;1.90;;;7.60;46.60;;;;;;4974459;28;20532;-50
2023/05/19 01:53:59;;;;;;;7.80;3.20;;;7.60;42.30;;;;;;4971983;28;20559;-51
2023/05/19 01:56:37;;;;;;;5.50;1.90;;;7.50;43.00;;;;;;4969976;28;20548;-51
2023/05/19 01:59:15;;;;;;;3.60;2.13;;;7.40;40.20;;;;;;4972334;28;20540;-50
2023/05/19 02:01:50;;;;;;;3.97;2.07;;;7.30;37.20;;;;;;4972104;28;20573;-50
2023/05/19 02:04:26;;;;;;;5.40;2.70;;;7.30;31.20;;;;;;4970245;28;20571;-52
2023/05/19 02:07:01;;;;;;;4.20;2.27;;;7.20;28.40;;;;;;4992234;28;20532;-51
2023/05/19 02:09:37;;;;;;;4.97;2.30;;;7.20;24.10;;;;;;4971516;28;20986;-50
2023/05/19 02:12:10;;;;;;;6.80;2.40;;;7.20;99.90;;;;;;4970024;28;20575;-50
2023/05/19 02:14:41;;;;;;;3.93;2.50;;;7.20;95.10;;;;;;4972831;28;20567;-51
2023/05/19 02:17:09;;;;;;;10.93;2.53;;;7.20;89.60;;;;;;4972964;28;21050;-51
2023/05/19 02:19:39;;;;;;;5.33;2.57;;;7.20;99.90;;;;;;4972953;28;20556;-51
2023/05/19 02:22:05;;;;;;;5.07;1.93;;;7.10;99.90;;;;;;4973193;28;20496;-51
2023/05/19 02:24:32;;;;;;;3.67;2.10;;;7.20;99.90;;;;;;4971423;28;21085;-51
2023/05/19 02:26:59;;;;;;;7.67;3.00;;;7.20;99.90;;;;;;4972130;28;20918;-51
2023/05/19 02:29:25;;;;;;;12.30;2.23;;;7.20;99.90;;;;;;4965808;28;20596;-50
2023/05/19 02:31:52;;;;;;;9.40;2.63;;;7.20;99.90;;;;;;4971643;28;20528;-50
2023/05/19 02:34:18;;;;;;;6.20;2.60;;;7.30;99.90;;;;;;4973938;28;20568;-50
2023/05/19 02:36:48;;;;;;;5.50;2.63;;;7.30;99.90;;;;;;4972976;28;20882;-51
2023/05/19 02:39:15;;;;;;;6.10;2.60;;;7.40;99.90;;;;;;4972891;28;20497;-51
2023/05/19 02:41:41;;;;;;;5.40;2.43;;;7.40;99.90;;;;;;4974321;28;20545;-51
2023/05/19 02:44:08;;;;;;;11.93;2.10;;;7.40;99.90;;;;;;4971903;28;20552;-51
2023/05/19 02:46:35;;;;;;;3.90;2.33;;;7.50;99.90;;;;;;4969746;28;20495;-51
2023/05/19 02:49:01;;;;;;;5.20;2.53;;;7.50;99.90;;;;;;4973034;28;20520;-51
2023/05/19 02:51:28;;;;;;;3.27;2.30;;;7.50;82.40;;;;;;4973032;28;20516;-52
2023/05/19 02:53:56;;;;;;;4.77;2.27;;;7.50;99.90;;;;;;4974973;28;20560;-51
2023/05/19 02:56:22;;;;;;;4.83;2.43;;;7.50;99.30;;;;;;4992918;28;20449;-50
2023/05/19 02:58:49;;;;;;;3.60;1.77;;;7.50;77.60;;;;;;4978179;28;20550;-51
2023/05/19 03:01:16;;;;;;;4.67;2.40;;;7.50;99.90;;;;;;4972222;28;20544;-50
2023/05/19 03:03:42;;;;;;;5.63;2.40;;;7.50;99.90;;;;;;4968077;28;20553;-56
2023/05/19 03:06:09;;;;;;;6.50;2.30;;;7.40;99.90;;;;;;4972684;28;20580;-56
2023/05/19 03:08:35;;;;;;;6.33;2.20;;;7.40;99.90;;;;;;4973086;28;21031;-54
2023/05/19 03:11:03;;;;;;;6.37;1.90;;;7.40;99.90;;;;;;4973415;28;20533;-54
2023/05/19 03:13:30;;;;;;;3.93;2.03;;;7.40;99.90;;;;;;4974049;28;20925;-56
2023/05/19 03:15:57;;;;;;;5.63;1.77;;;7.40;99.90;;;;;;4972681;28;20472;-54
2023/05/19 03:18:24;;;;;;;5.13;2.30;;;7.40;99.90;;;;;;4971712;28;20469;-54
2023/05/19 03:20:52;;;;;;;6.07;2.93;;;7.40;99.90;;;;;;4972120;28;20552;-54
2023/05/19 03:23:19;;;;;;;6.30;2.60;;;7.40;99.90;;;;;;4971670;28;20461;-56
2023/05/19 03:25:45;;;;;;;4.07;1.97;;;7.40;99.90;;;;;;4980923;28;20864;-54
2023/05/19 03:28:13;;;;;;;3.13;1.90;;;7.40;99.90;;;;;;4990522;28;20485;-54
2023/05/19 03:30:40;;;;;;;7.13;2.37;;;7.50;99.90;;;;;;4972194;28;20540;-54
2023/05/19 03:33:06;;;;;;;5.30;2.30;;;7.40;99.90;;;;;;4974614;28;20464;-54
2023/05/19 03:35:33;;;;;;;2.73;1.80;;;7.40;99.90;;;;;;4970554;28;20477;-55
2023/05/19 03:38:00;;;;;;;9.33;2.40;;;7.50;99.90;;;;;;4974883;28;20536;-56
2023/05/19 03:40:26;;;;;;;4.07;2.20;;;7.50;99.90;;;;;;4973094;28;20540;-54
2023/05/19 03:42:54;;;;;;;3.63;1.80;;;7.40;99.90;;;;;;4974226;28;21016;-55
2023/05/19 03:45:21;;;;;;;4.93;2.33;;;7.50;99.90;;;;;;4981020;28;20516;-55
2023/05/19 03:47:48;;;;;;;4.57;2.33;;;7.40;99.90;;;;;;4970105;28;20895;-54
2023/05/19 03:50:15;;;;;;;5.90;2.30;;;7.40;99.90;;;;;;4972196;28;20493;-54
2023/05/19 03:52:44;;;;;;;5.80;2.23;;;7.40;99.90;;;;;;4977276;28;20545;-55
2023/05/19 03:55:10;;;;;;;4.33;2.30;;;7.40;99.90;;;;;;4971000;28;20592;-55
2023/05/19 03:57:37;;;;;;;4.33;1.97;;;7.40;99.90;;;;;;4972903;28;20528;-55
2023/05/19 04:00:05;;;;;;;4.57;2.13;;;7.40;99.90;;;;;;4973047;28;20433;-54
2023/05/19 04:02:32;;;;;;;2.30;2.00;;;7.40;99.90;;;;;;4971796;28;21017;-54
2023/05/19 04:04:59;;;;;;;8.13;2.67;;;7.40;99.90;;;;;;4974978;28;20565;-56
2023/05/19 04:07:26;;;;;;;4.60;2.33;;;7.40;99.90;;;;;;4970950;28;20471;-55
2023/05/19 04:09:52;;;;;;;3.23;2.23;;;7.40;99.90;;;;;;4974603;28;20492;-56
2023/05/19 04:12:19;;;;;;;4.43;2.43;;;7.40;99.90;;;;;;4971754;28;20645;-56
2023/05/19 04:14:45;;;;;;;5.53;2.17;;;7.50;99.90;;;;;;4980561;28;21038;-55
2023/05/19 04:17:12;;;;;;;8.50;2.33;;;7.50;99.90;;;;;;4971974;28;20540;-54
2023/05/19 04:19:40;;;;;;;7.30;2.80;;;7.50;99.90;;;;;;4972929;28;20540;-55
2023/05/19 04:22:06;;;;;;;2.30;1.93;;;7.60;99.90;;;;;;4970309;28;20551;-54
2023/05/19 04:24:33;;;;;;;3.70;2.30;;;7.70;99.90;;;;;;4983864;22;20652;-51
2023/05/19 04:27:03;;;;;;;5.97;2.53;;;7.70;99.90;;;;;;4991398;28;20523;-51
2023/05/19 04:29:31;;;;;;;3.43;2.17;;;7.80;99.90;;;;;;4991392;28;20491;-51
2023/05/19 04:31:57;;;;;;;6.40;2.43;;;7.90;99.90;;;;;;4989322;28;20495;-51
2023/05/19 04:34:24;;;;;;;3.10;2.23;;;7.90;99.90;;;;;;4985884;28;20543;-51
2023/05/19 04:36:52;;;;;;;3.20;2.43;;;8.00;99.90;;;;;;4991982;28;20479;-51
2023/05/19 04:39:18;;;;;;;5.80;2.73;;;8.10;99.90;;;;;;4979717;28;20559;-50
2023/05/19 04:41:45;;;;;;;5.60;2.53;;;8.10;99.90;;;;;;4973961;28;20563;-52
2023/05/19 04:44:12;;;;;;;12.40;3.10;;;8.20;99.90;;;;;;4970724;28;20465;-50
2023/05/19 04:46:38;;;;;;;5.07;2.50;;;8.30;99.90;;;;;;4974861;28;20493;-51
2023/05/19 04:49:05;;;;;;;2.70;2.13;;;8.30;99.90;;;;;;4976295;28;20552;-51
2023/05/19 04:51:32;;;;;;;4.77;2.67;;;8.40;99.90;;;;;;4977668;28;20493;-50
2023/05/19 04:54:00;;;;;;;4.43;2.73;;;8.50;99.90;;;;;;4982284;28;20556;-51
2023/05/19 04:56:27;;;;;;;9.17;2.57;;;8.50;99.90;;;;;;5000367;28;20463;-51
2023/05/19 04:58:54;;;;;;;4.53;2.50;;;8.70;99.90;;;;;;4966175;28;20548;-51
2023/05/19 05:01:24;;;;;;;8.70;2.50;;;8.70;99.90;;;;;;4973864;28;20554;-51
2023/05/19 05:03:53;;;;;;;5.17;2.70;;;8.90;99.90;;;;;;4974752;28;20588;-51
2023/05/19 05:06:20;;;;;;;6.40;3.20;;;9.00;99.90;;;;;;4975288;28;20866;-51
2023/05/19 05:08:46;;;;;;;5.97;2.93;;;9.10;99.90;;;;;;4974826;28;20898;-51
2023/05/19 05:11:15;;;;;;;6.03;3.00;;;9.20;82.00;;;;;;4983108;28;20488;-51
2023/05/19 05:13:42;;;;;;;4.57;2.47;;;9.30;20.20;;;;;;4980619;28;20548;-51
2023/05/19 05:16:10;;;;;;;6.87;2.93;;;9.40;22.90;;;;;;4974497;28;20569;-51
2023/05/19 05:18:38;;;;;;;6.57;2.57;;;9.50;26.40;;;;;;4975589;28;20456;-50
2023/05/19 05:21:05;;;;;;;7.17;2.83;;;9.60;22.90;;;;;;4982044;28;20498;-50
2023/05/19 05:23:32;;;;;;;7.63;3.40;;;9.70;30.20;;;;;;4990257;28;20536;-51
2023/05/19 05:25:59;;;;;;;6.50;3.17;;;9.80;40.00;;;;;;4994276;28;21038;-51
2023/05/19 05:28:27;;;;;;;6.90;3.00;;;9.90;44.80;;;;;;4990371;28;20566;-52
2023/05/19 05:30:55;;;;;;;3.63;2.50;;;10.00;35.50;;;;;;4974033;28;20581;-51
2023/05/19 05:33:23;;;;;;;12.43;3.10;;;10.10;40.80;;;;;;4983509;28;20472;-51
2023/05/19 05:35:50;;;;;;;6.23;2.50;;;10.10;42.80;;;;;;4983541;28;20487;-51
2023/05/19 05:38:16;;;;;;;7.67;3.20;;;10.20;43.40;;;;;;4974875;28;20528;-51
2023/05/19 05:40:43;;;;;;;6.17;2.63;;;10.30;56.00;;;;;;4979027;28;20908;-55
2023/05/19 05:43:09;;;;;;;4.80;2.70;;;10.40;48.60;;;;;;4970883;28;20568;-51
2023/05/19 05:45:37;;;;;;;11.63;3.40;;;10.40;54.60;;;;;;4972735;28;21080;-51
2023/05/19 05:48:05;;;;;;;12.57;3.10;;;10.50;57.10;;;;;;4971642;28;21968;-51
2023/05/19 05:50:32;;;;;;;6.20;2.87;;;10.60;54.90;;;;;;4973190;28;20560;-51
2023/05/19 05:53:01;;;;;;;7.67;3.30;;;10.70;60.70;;;;;;4972974;28;20553;-51
2023/05/19 05:55:28;;;;;;;5.17;2.90;;;10.80;82.20;;;;;;4972811;28;20517;-51
2023/05/19 05:57:55;;;;;;;7.10;3.50;;;10.90;74.00;;;;;;4973676;28;20576;-50
2023/05/19 06:00:22;;;;;;;7.90;4.07;;;11.00;82.20;;;;;;4974510;28;20544;-51
2023/05/19 06:02:50;;;;;;;7.87;3.30;;;11.10;88.10;;;;;;4971443;28;20472;-51
2023/05/19 06:05:17;;;;;;;9.53;3.30;;;11.00;99.90;;;;;;4982012;28;20520;-51
2023/05/19 06:07:44;;;;;;;8.47;3.20;;;11.10;99.90;;;;;;4973610;28;20579;-51
2023/05/19 06:10:11;;;;;;;15.03;3.87;;;11.30;99.90;;;;;;4970455;28;20472;-52
2023/05/19 06:12:39;;;;;;;10.13;2.63;;;11.30;99.90;;;;;;4970714;28;20582;-51
2023/05/19 06:15:06;;;;;;;5.57;3.20;;;11.40;99.90;;;;;;4973132;28;20569;-51
2023/05/19 06:17:34;;;;;;;7.53;2.80;;;11.50;99.90;;;;;;4971364;28;20611;-51
2023/05/19 06:20:03;;;;;;;8.00;3.40;;;11.50;99.90;;;;;;4972881;28;20511;-51
2023/05/19 06:22:29;;;;;;;9.00;2.73;;;11.60;99.90;;;;;;4972576;28;20475;-51
2023/05/19 06:24:56;;;;;;;5.40;2.73;;;11.70;99.90;;;;;;4970925;28;20575;-50
2023/05/19 06:27:23;;;;;;;12.57;3.30;;;11.80;99.90;;;;;;4970644;28;20521;-51
2023/05/19 06:29:49;;;;;;;3.70;2.97;;;11.90;99.90;;;;;;4981782;28;20529;-51
2023/05/19 06:32:16;;;;;;;5.20;3.23;;;11.90;99.90;;;;;;4993539;28;20448;-51
2023/05/19 06:34:42;;;;;;;5.20;2.93;;;12.10;99.90;;;;;;4976008;28;20565;-50
2023/05/19 06:37:10;;;;;;;4.57;2.90;;;12.20;99.90;;;;;;4974068;28;20536;-52
2023/05/19 06:39:37;;;;;;;4.10;3.00;;;12.30;99.90;;;;;;4972994;28;20462;-51
2023/05/19 06:42:04;;;;;;;3.07;2.10;;;12.20;99.90;;;;;;4972973;28;20547;-50
2023/05/19 06:44:31;;;;;;;3.97;2.50;;;12.20;99.90;;;;;;4971914;28;20495;-51
2023/05/19 06:46:57;;;;;;;21.67;3.60;;;12.30;99.90;;;;;;4973765;28;20579;-51
2023/05/19 06:49:28;;;;;;;9.50;3.10;;;12.30;99.90;;;;;;4973573;28;20544;-51
2023/05/19 06:51:54;;;;;;;4.87;2.40;;;12.40;99.90;;;;;;4965764;28;20458;-52
2023/05/19 06:54:22;;;;;;;5.87;3.17;;;12.50;99.90;;;;;;4968801;28;21155;-51
2023/05/19 06:56:49;;;;;;;3.67;2.60;;;12.60;99.90;;;;;;4973714;28;20527;-51
2023/05/19 06:59:15;;;;;;;12.10;2.33;;;12.60;99.90;;;;;;4979215;28;20471;-50
2023/05/19 07:01:42;;;;;;;2.80;2.50;;;12.70;99.90;;;;;;4972653;28;20476;-50
2023/05/19 07:04:08;;;;;;;15.63;3.37;;;12.90;99.90;;;;;;4975794;28;20508;-51
2023/05/19 07:06:35;;;;;;;5.17;3.20;;;13.00;73.40;;;;;;4975755;28;20953;-51
2023/05/19 07:09:04;;;;;;;3.13;2.30;;;13.20;41.00;;;;;;4974510;28;21008;-51
2023/05/19 07:11:31;;;;;;;13.87;3.20;;;13.30;34.00;;;;;;4977655;28;20500;-52
2023/05/19 07:13:58;;;;;;;8.20;2.53;;;13.40;41.00;;;;;;4981654;28;21006;-51
2023/05/19 07:16:25;;;;;;;10.67;3.00;;;13.50;53.40;;;;;;4984457;28;20528;-51
2023/05/19 07:18:51;;;;;;;5.53;2.70;;;13.50;83.50;;;;;;4972725;28;20544;-50
2023/05/19 07:21:18;;;;;;;7.20;2.03;;;13.50;86.70;;;;;;4971939;28;20551;-50
2023/05/19 07:23:44;;;;;;;3.20;2.50;;;13.60;87.00;;;;;;4973435;28;21002;-51
2023/05/19 07:26:11;;;;;;;12.57;2.30;;;13.60;85.30;;;;;;4973185;28;20548;-50
2023/05/19 07:28:39;;;;;;;7.37;2.67;;;13.60;92.80;;;;;;4974184;28;20485;-51
2023/05/19 07:31:05;;;;;;;2.63;1.87;;;13.60;90.80;;;;;;4974879;28;20521;-51
2023/05/19 07:33:32;;;;;;;12.13;2.63;;;13.70;86.00;;;;;;4973355;28;20582;-50
2023/05/19 07:35:58;;;;;;;2.10;1.90;;;13.90;97.40;;;;;;4975239;28;20572;-51
2023/05/19 07:38:25;;;;;;;3.93;1.90;;;14.00;97.80;;;;;;4982428;28;20474;-51
2023/05/19 07:40:51;;;;;;;2.20;1.87;;;14.20;97.70;;;;;;4975736;28;20838;-50
2023/05/19 07:43:18;;;;;;;4.30;2.10;;;14.50;99.90;;;;;;4979240;28;20488;-51
2023/05/19 07:45:46;;;;;;;3.80;2.00;;;14.70;99.90;;;;;;4993929;28;20535;-51
2023/05/19 07:48:12;;;;;;;2.10;1.90;;;14.80;99.90;;;;;;4979959;28;20524;-51
2023/05/19 07:50:39;;;;;;;2.10;1.80;;;15.00;99.90;;;;;;4970789;28;20630;-50
2023/05/19 07:53:05;;;;;;;3.10;1.90;;;15.10;99.90;;;;;;4968010;28;20548;-51
2023/05/19 07:55:32;;;;;;;7.83;2.10;;;15.00;99.90;;;;;;4970317;28;20588;-51
2023/05/19 07:57:58;;;;;;;2.53;2.13;;;15.10;99.90;;;;;;4977504;28;20485;-51
2023/05/19 08:00:25;;;;;;;1.70;1.60;;;15.20;99.90;;;;;;4968718;28;20600;-51
2023/05/19 08:02:53;;;;;;;2.47;2.10;;;15.30;99.90;;;;;;4971271;28;20544;-51
2023/05/19 08:05:19;;;;;;;16.37;2.27;;;15.40;99.90;;;;;;4967588;28;20489;-51
2023/05/19 08:07:46;;;;;;;7.10;1.80;;;15.50;99.90;;;;;;4969980;28;20513;-51
2023/05/19 08:10:12;;;;;;;2.63;2.03;;;15.60;99.90;;;;;;4967378;28;20465;-51
2023/05/19 08:12:39;;;;;;;3.80;1.77;;;15.80;99.90;;;;;;4971592;28;20959;-51
2023/05/19 08:15:07;;;;;;;4.30;1.80;;;16.00;99.90;;;;;;4973027;28;20492;-51
2023/05/19 08:17:34;;;;;;;2.67;1.53;;;16.20;99.90;;;;;;4976331;28;20465;-51
2023/05/19 08:20:03;;;;;;;2.20;2.00;;;16.30;99.90;;;;;;4974247;28;20458;-51
2023/05/19 08:22:30;;;;;;;1.97;1.60;;;16.30;99.90;;;;;;4974047;28;20461;-51
2023/05/19 08:24:57;;;;;;;1.57;1.47;;;16.40;99.90;;;;;;4976143;28;20576;-51
2023/05/19 08:27:23;;;;;;;7.70;1.77;;;16.30;99.90;;;;;;4969568;28;22291;-52
2023/05/19 08:29:50;;;;;;;1.63;1.53;;;16.40;99.90;;;;;;4980953;28;20485;-51
2023/05/19 08:32:17;;;;;;;1.70;1.40;;;16.60;99.90;;;;;;4995725;28;20512;-52
2023/05/19 08:34:43;;;;;;;2.10;1.90;;;16.80;99.90;;;;;;4977219;28;20843;-51
2023/05/19 08:37:11;;;;;;;4.43;1.50;;;16.80;99.90;;;;;;4973981;28;21062;-51
2023/05/19 08:39:38;;;;;;;4.83;1.43;;;17.00;99.90;;;;;;4972953;28;20534;-52
2023/05/19 08:42:06;;;;;;;4.67;2.00;;;16.90;99.90;;;;;;4973499;28;21058;-50
2023/05/19 08:44:33;;;;;;;1.53;1.43;;;16.90;99.90;;;;;;4971023;28;20489;-51
2023/05/19 08:47:02;;;;;;;9.17;1.77;;;16.90;99.90;;;;;;4971234;28;21053;-50
2023/05/19 08:49:32;;;;;;;3.73;1.33;;;17.00;99.90;;;;;;4972575;28;20551;-50
2023/05/19 08:52:06;;;;;;;1.60;1.50;;;17.30;99.90;;;;;;4977047;28;20905;-52
2023/05/19 08:54:45;;;;;;;3.47;1.30;;;17.50;99.90;;;;;;4972426;28;20910;-51
2023/05/19 08:57:12;;;;;;;2.03;1.83;;;17.20;99.90;;;;;;4977225;28;20504;-51
2023/05/19 08:59:41;;;;;;;1.93;1.33;;;17.10;99.90;;;;;;4971606;28;20557;-51
2023/05/19 09:02:09;;;;;;;2.77;1.80;;;16.90;99.90;;;;;;4969648;28;20560;-52
2023/05/19 09:04:35;;;;;;;4.00;1.90;;;16.80;99.90;;;;;;4974384;28;20516;-52
2023/05/19 09:07:02;;;;;;;3.23;1.43;;;16.80;99.90;;;;;;4985380;28;20512;-52
2023/05/19 09:09:29;;;;;;;1.40;1.30;;;16.90;99.90;;;;;;4974283;28;20959;-52
2023/05/19 09:11:57;;;;;;;6.63;2.40;;;17.40;99.90;;;;;;4977160;28;20501;-52
2023/05/19 09:14:24;;;;;;;6.47;1.60;;;17.70;99.90;;;;;;4974136;28;20927;-53
2023/05/19 09:16:51;;;;;;;2.80;1.83;;;18.00;99.90;;;;;;4966886;28;20569;-53
2023/05/19 09:19:19;;;;;;;2.70;1.63;;;18.10;99.90;;;;;;4972493;28;20500;-52
2023/05/19 09:21:46;;;;;;;4.57;2.03;;;17.90;99.90;;;;;;4973964;28;20541;-54
2023/05/19 09:24:12;;;;;;;7.27;1.70;;;17.60;99.90;;;;;;4974492;28;22516;-51
2023/05/19 09:26:40;;;;;;;3.77;1.50;;;17.70;99.90;;;;;;4980316;28;20541;-52
2023/05/19 09:29:15;;;;;;;2.80;1.80;;;17.70;99.90;;;;;;4974540;28;20465;-52
2023/05/19 09:31:49;;;;;;;10.57;2.10;;;18.20;99.90;;;;;;4972732;28;20555;-52
2023/05/19 09:34:16;;;;;;;1.70;1.40;;;18.30;99.90;;;;;;4969730;28;20573;-52
2023/05/19 09:36:43;;;;;;;1.90;1.60;;;17.90;99.90;;;;;;4972943;28;20912;-52
2023/05/19 09:39:14;;;;;;;2.50;1.83;;;17.90;99.90;;;;;;4971971;28;20557;-52
2023/05/19 09:41:40;;;;;;;2.10;1.90;;;18.00;99.90;;;;;;4971214;28;20465;-53
2023/05/19 09:44:07;;;;;;;11.20;1.80;;;18.20;99.90;;;;;;4965523;28;20530;-52
2023/05/19 09:46:36;;;;;;;2.73;2.53;;;17.90;99.90;;;;;;4962601;28;20462;-51
2023/05/19 09:49:09;;;;;;;2.93;1.60;;;17.70;99.90;;;;;;4980195;28;20995;-52
2023/05/19 09:51:36;;;;;;;1.70;1.50;;;18.00;99.90;;;;;;4988531;28;20464;-52
2023/05/19 09:54:03;;;;;;;6.20;1.40;;;17.90;99.90;;;;;;4971839;28;20465;-51
2023/05/19 09:56:34;;;;;;;3.13;1.60;;;17.70;99.90;;;;;;4973165;28;20488;-51
2023/05/19 09:59:01;;;;;;;4.33;1.90;;;18.10;99.90;;;;;;4971576;28;20524;-51
2023/05/19 10:01:28;;;;;;;3.90;1.53;;;18.50;99.90;;;;;;4978240;28;20555;-51
2023/05/19 10:03:56;;;;;;;1.50;1.40;;;19.80;99.90;;;;;;4972212;28;20635;-51
2023/05/19 10:06:24;;;;;;;7.70;1.67;;;19.40;99.90;;;;;;4969725;28;20564;-51
2023/05/19 10:08:53;;;;;;;1.87;1.57;;;19.20;99.90;;;;;;4982374;28;21021;-51
2023/05/19 10:11:21;;;;;;;1.40;1.30;;;18.70;99.90;;;;;;4980285;28;20465;-51
2023/05/19 10:13:51;;;;;;;3.50;1.03;;;18.30;99.90;;;;;;4972601;28;20560;-51
2023/05/19 10:16:20;;;;;;;4.43;1.97;;;18.00;99.90;;;;;;4973613;28;21151;-51
2023/05/19 10:18:49;;;;;;;1.30;1.20;;;17.70;99.90;;;;;;4974475;28;20569;-50
2023/05/19 10:21:18;;;;;;;2.50;1.40;;;17.50;99.90;;;;;;4979772;28;20556;-51
2023/05/19 10:23:44;;;;;;;3.90;1.10;;;17.80;99.90;;;;;;4972941;28;20549;-51
2023/05/19 10:26:11;;;;;;;2.17;1.43;;;17.90;99.90;;;;;;5018547;23;20641;-53
2023/05/19 10:28:42;;;;;;;1.63;1.17;;;17.50;99.90;;;;;;5010314;28;20570;-53
2023/05/19 10:31:16;;;;;;;2.40;1.60;;;17.50;99.90;;;;;;5010221;28;20547;-53
2023/05/19 10:34:00;;;;;;;5.07;1.10;;;18.60;99.90;;;;;;5010712;28;20911;-53
2023/05/19 10:36:43;;;;;;;1.97;1.67;;;20.00;99.90;;;;;;5010663;28;20575;-52
2023/05/19 10:39:17;;;;;;;13.40;1.07;;;21.60;99.90;;;;;;5012016;28;20969;-53
2023/05/19 10:41:50;;;;;;;2.03;1.20;;;21.10;99.90;;;;;;5011102;28;20990;-53
2023/05/19 10:44:25;;;;;;;4.30;1.60;;;21.00;99.90;;;;;;5015281;28;20559;-52
2023/05/19 10:46:51;;;;;;;3.87;1.50;;;20.80;99.90;;;;;;5010163;28;20554;-53
2023/05/19 10:49:21;;;;;;;1.53;1.43;;;21.70;99.90;;;;;;5011848;28;20578;-52
2023/05/19 10:51:51;;;;;;;1.57;1.40;;;21.60;99.90;;;;;;5010891;28;20468;-52
2023/05/19 10:54:39;;;;;;;4.20;1.27;;;21.00;99.90;;;;;;5012209;28;20540;-53
2023/05/19 10:57:06;;;;;;;5.20;1.30;;;20.90;99.90;;;;;;5010059;28;20518;-53
2023/05/19 10:59:38;;;;;;;3.77;1.20;;;19.80;99.90;;;;;;5010839;28;20481;-54
2023/05/19 11:02:05;;;;;;;3.03;1.53;;;19.70;99.90;;;;;;5007898;28;20459;-52
2023/05/19 11:04:39;;;;;;;1.57;1.37;;;19.70;99.90;;;;;;5010029;28;20478;-53
2023/05/19 11:07:08;;;;;;;2.10;1.57;;;19.70;99.90;;;;;;5004127;28;20986;-53
2023/05/19 11:09:40;;;;;;;4.50;2.00;;;19.10;99.90;;;;;;5008015;28;21027;-53
2023/05/19 11:12:09;;;;;;;1.30;1.20;;;18.50;99.90;;;;;;4998180;28;20464;-53
2023/05/19 11:14:36;;;;;;;1.90;1.53;;;18.30;99.90;;;;;;5002695;28;21034;-54
2023/05/19 11:17:04;;;;;;;4.27;1.10;;;18.50;99.90;;;;;;5000082;28;20983;-54
2023/05/19 11:19:31;;;;;;;2.50;1.30;;;19.00;99.90;;;;;;5004506;28;20469;-54
2023/05/19 11:22:10;;;;;;;1.40;1.30;;;18.80;99.90;;;;;;5002101;28;20461;-54
2023/05/19 11:24:38;;;;;;;2.00;1.03;;;18.40;99.90;;;;;;5007254;28;21020;-53
2023/05/19 11:27:25;;;;;;;1.57;1.47;;;18.80;99.90;;;;;;5010269;28;20464;-53
2023/05/19 11:29:52;;;;;;;1.40;1.17;;;19.20;99.90;;;;;;5010137;28;20465;-53
2023/05/19 11:32:20;;;;;;;1.50;1.40;;;19.70;99.90;;;;;;5010842;28;20463;-53
2023/05/19 11:34:48;;;;;;;1.77;1.37;;;20.40;99.90;;;;;;5003724;28;20591;-53
2023/05/19 11:37:16;;;;;;;1.30;1.20;;;20.20;99.90;;;;;;5010145;28;20514;-54
2023/05/19 11:39:43;;;;;;;9.43;1.60;;;19.80;99.90;;;;;;5020427;28;20442;-53
2023/05/19 11:42:10;;;;;;;1.90;1.30;;;18.90;99.90;;;;;;5008231;28;20456;-53
2023/05/19 11:44:39;;;;;;;4.40;1.53;;;19.10;99.90;;;;;;5011060;28;20479;-53
2023/05/19 11:47:06;;;;;;;1.53;1.43;;;19.00;99.90;;;;;;5003804;28;20530;-52
2023/05/19 11:49:33;;;;;;;15.63;1.60;;;18.60;99.90;;;;;;5008216;28;20791;-54
2023/05/19 11:52:00;;;;;;;1.43;1.33;;;19.10;99.90;;;;;;5013856;28;20534;-53
2023/05/19 11:54:32;;;;;;;1.70;1.60;;;18.90;99.90;;;;;;5014679;28;20459;-53
2023/05/19 11:57:01;;;;;;;3.23;1.37;;;18.80;99.90;;;;;;5014738;28;20472;-53
2023/05/19 11:59:32;;;;;;;1.67;1.30;;;18.80;99.90;;;;;;5021255;28;20466;-53
2023/05/19 12:02:03;;;;;;;4.30;1.43;;;19.10;99.90;;;;;;5016827;28;20938;-54
2023/05/19 12:04:29;;;;;;;2.40;1.30;;;18.80;99.90;;;;;;5022857;28;20548;-54
2023/05/19 12:06:56;;;;;;;5.80;1.80;;;19.10;99.90;;;;;;5010827;28;20560;-53
2023/05/19 12:09:23;;;;;;;6.20;1.20;;;20.00;99.90;;;;;;5020079;28;20522;-54
2023/05/19 12:11:52;;;;;;;1.80;1.43;;;19.50;99.90;;;;;;5009891;28;20460;-54
2023/05/19 12:14:18;;;;;;;3.00;1.67;;;19.70;99.90;;;;;;5016484;28;20460;-54
2023/05/19 12:16:45;;;;;;;1.60;1.50;;;19.60;99.90;;;;;;5013535;28;20487;-54
2023/05/19 12:19:12;;;;;;;3.00;1.50;;;18.90;99.90;;;;;;5006554;28;20552;-53
2023/05/19 12:21:38;;;;;;;1.43;1.20;;;19.10;99.90;;;;;;5009078;28;20988;-53
2023/05/19 12:24:06;;;;;;;1.73;1.53;;;18.80;99.90;;;;;;5008011;28;20555;-53
2023/05/19 12:26:33;;;;;;;3.50;1.43;;;19.00;99.90;;;;;;5012954;28;21032;-53
2023/05/19 12:29:01;;;;;;;12.97;1.60;;;19.00;99.90;;;;;;5012230;28;20579;-53
2023/05/19 12:31:27;;;;;;;1.50;1.40;;;19.10;99.90;;;;;;5010113;28;20535;-50
2023/05/19 12:33:55;;;;;;;1.30;1.20;;;19.20;99.90;;;;;;5015134;28;20471;-50
2023/05/19 12:36:24;;;;;;;2.20;1.40;;;19.00;99.90;;;;;;5011480;28;20516;-51
2023/05/19 12:38:54;;;;;;;1.40;1.30;;;18.80;99.90;;;;;;5011832;28;20541;-51
2023/05/19 12:41:21;;;;;;;1.97;1.63;;;18.80;99.90;;;;;;5011422;28;20957;-51
2023/05/19 12:43:49;;;;;;;1.87;1.57;;;18.50;99.90;;;;;;5020934;28;20483;-51
2023/05/19 12:46:19;;;;;;;1.87;1.53;;;18.60;99.90;;;;;;5015627;28;20492;-52
2023/05/19 12:48:46;;;;;;;2.70;1.50;;;18.50;99.90;;;;;;5022840;28;20538;-52
2023/05/19 12:51:16;;;;;;;2.53;1.60;;;18.90;99.90;;;;;;5017767;28;20469;-50
2023/05/19 12:53:43;;;;;;;3.53;1.47;;;20.00;99.90;;;;;;5015355;28;20571;-52
2023/05/19 12:56:13;;;;;;;6.73;1.50;;;21.20;99.90;;;;;;5016774;28;20519;-52